sensor_id;sensor_type;location;lat;lon;timestamp;temperature;humidity
4811;DHT22;2419;51.276;6.472;2024-03-02T00:00:43;8.10;99.90
4811;DHT22;2419;51.276;6.472;2024-03-02T00:03:13;8.00;99.90
4811;DHT22;2419;51.276;6.472;2024-03-02T00:05:42;8.00;99.90
4811;DHT22;2419;51.276;6.472;2024-03-02T00:08:10;8.20;99.90
4811;DHT22;2419;51.276;6.472;2024-03-02T00:10:39;8.20;99.90
4811;DHT22;2419;51.276;6.472;2024-03-02T00:13:08;8.20;99.90
4811;DHT22;2419;51.276;6.472;2024-03-02T00:15:48;8.20;99.90
4811;DHT22;2419;51.276;6.472;2024-03-02T00:18:19;8.40;99.90
4811;DHT22;2419;51.276;6.472;2024-03-02T00:20:48;8.50;99.90
4811;DHT22;2419;51.276;6.472;2024-03-02T00:23:16;8.60;99.90
4811;DHT22;2419;51.276;6.472;2024-03-02T00:25:48;8.60;99.90
4811;DHT22;2419;51.276;6.472;2024-03-02T00:28:18;8.60;99.90
4811;DHT22;2419;51.276;6.472;2024-03-02T00:30:58;8.60;99.90
4811;DHT22;2419;51.276;6.472;2024-03-02T00:33:28;8.60;99.90
4811;DHT22;2419;51.276;6.472;2024-03-02T00:35:58;8.50;99.90
4811;DHT22;2419;51.276;6.472;2024-03-02T00:38:27;8.60;99.90
4811;DHT22;2419;51.276;6.472;2024-03-02T00:40:56;8.60;99.90
4811;DHT22;2419;51.276;6.472;2024-03-02T00:43:42;8.60;99.90
4811;DHT22;2419;51.276;6.472;2024-03-02T00:46:18;8.60;99.90
4811;DHT22;2419;51.276;6.472;2024-03-02T00:48:56;8.50;99.90
4811;DHT22;2419;51.276;6.472;2024-03-02T00:51:26;8.60;99.90
4811;DHT22;2419;51.276;6.472;2024-03-02T00:53:55;8.60;99.90
4811;DHT22;2419;51.276;6.472;2024-03-02T00:56:24;8.60;99.90
4811;DHT22;2419;51.276;6.472;2024-03-02T00:58:53;8.60;99.90
4811;DHT22;2419;51.276;6.472;2024-03-02T01:01:23;8.60;99.90
4811;DHT22;2419;51.276;6.472;2024-03-02T01:03:51;8.60;99.90
4811;DHT22;2419;51.276;6.472;2024-03-02T01:06:20;8.50;99.90
4811;DHT22;2419;51.276;6.472;2024-03-02T01:08:49;8.50;99.90
4811;DHT22;2419;51.276;6.472;2024-03-02T01:11:19;8.50;99.90
4811;DHT22;2419;51.276;6.472;2024-03-02T01:13:49;8.50;99.90
4811;DHT22;2419;51.276;6.472;2024-03-02T01:16:17;8.40;99.90
4811;DHT22;2419;51.276;6.472;2024-03-02T01:18:46;8.40;99.90
4811;DHT22;2419;51.276;6.472;2024-03-02T01:21:15;8.40;99.90
4811;DHT22;2419;51.276;6.472;2024-03-02T01:23:43;8.40;99.90
4811;DHT22;2419;51.276;6.472;2024-03-02T01:26:11;8.30;99.90
4811;DHT22;2419;51.276;6.472;2024-03-02T01:28:39;8.20;99.90
4811;DHT22;2419;51.276;6.472;2024-03-02T01:31:07;8.20;99.90
4811;DHT22;2419;51.276;6.472;2024-03-02T01:33:35;8.10;99.90
4811;DHT22;2419;51.276;6.472;2024-03-02T01:36:05;8.10;99.90
4811;DHT22;2419;51.276;6.472;2024-03-02T01:38:35;8.10;99.90
4811;DHT22;2419;51.276;6.472;2024-03-02T01:41:03;8.20;99.90
4811;DHT22;2419;51.276;6.472;2024-03-02T01:43:31;8.10;99.90
4811;DHT22;2419;51.276;6.472;2024-03-02T01:45:59;8.20;99.90
4811;DHT22;2419;51.276;6.472;2024-03-02T01:48:27;8.20;99.90
4811;DHT22;2419;51.276;6.472;2024-03-02T01:50:55;8.20;99.90
4811;DHT22;2419;51.276;6.472;2024-03-02T01:53:25;8.30;99.90
4811;DHT22;2419;51.276;6.472;2024-03-02T01:55:53;8.30;99.90
4811;DHT22;2419;51.276;6.472;2024-03-02T01:58:21;8.30;99.90
4811;DHT22;2419;51.276;6.472;2024-03-02T02:00:49;8.30;99.90
4811;DHT22;2419;51.276;6.472;2024-03-02T02:03:18;8.40;99.90
4811;DHT22;2419;51.276;6.472;2024-03-02T02:05:46;8.40;99.90
4811;DHT22;2419;51.276;6.472;2024-03-02T02:08:14;8.40;99.90
4811;DHT22;2419;51.276;6.472;2024-03-02T02:10:44;8.40;99.90
4811;DHT22;2419;51.276;6.472;2024-03-02T02:13:12;8.50;99.90
4811;DHT22;2419;51.276;6.472;2024-03-02T02:15:40;8.50;99.90
4811;DHT22;2419;51.276;6.472;2024-03-02T02:18:08;8.60;99.90
4811;DHT22;2419;51.276;6.472;2024-03-02T02:20:37;8.60;99.90
4811;DHT22;2419;51.276;6.472;2024-03-02T02:23:05;8.60;99.90
4811;DHT22;2419;51.276;6.472;2024-03-02T02:25:35;8.70;99.90
4811;DHT22;2419;51.276;6.472;2024-03-02T02:28:03;8.70;99.90
4811;DHT22;2419;51.276;6.472;2024-03-02T02:30:32;8.80;99.90
4811;DHT22;2419;51.276;6.472;2024-03-02T02:33:00;8.80;99.90
4811;DHT22;2419;51.276;6.472;2024-03-02T02:35:29;8.80;99.90
4811;DHT22;2419;51.276;6.472;2024-03-02T02:37:57;9.00;99.90
4811;DHT22;2419;51.276;6.472;2024-03-02T02:40:27;9.10;99.90
4811;DHT22;2419;51.276;6.472;2024-03-02T02:42:56;9.10;99.90
4811;DHT22;2419;51.276;6.472;2024-03-02T02:45:26;9.20;99.90
4811;DHT22;2419;51.276;6.472;2024-03-02T02:47:54;9.10;99.90
4811;DHT22;2419;51.276;6.472;2024-03-02T02:50:22;9.00;99.90
4811;DHT22;2419;51.276;6.472;2024-03-02T02:52:50;9.00;99.90
4811;DHT22;2419;51.276;6.472;2024-03-02T02:55:18;8.90;99.90
4811;DHT22;2419;51.276;6.472;2024-03-02T02:57:47;8.90;99.90
4811;DHT22;2419;51.276;6.472;2024-03-02T03:00:16;9.00;99.90
4811;DHT22;2419;51.276;6.472;2024-03-02T03:02:48;9.00;99.90
4811;DHT22;2419;51.276;6.472;2024-03-02T03:05:18;8.90;99.90
4811;DHT22;2419;51.276;6.472;2024-03-02T03:07:46;8.80;99.90
4811;DHT22;2419;51.276;6.472;2024-03-02T03:10:17;8.70;99.90
4811;DHT22;2419;51.276;6.472;2024-03-02T03:12:45;8.50;99.90
4811;DHT22;2419;51.276;6.472;2024-03-02T03:15:15;8.40;99.90
4811;DHT22;2419;51.276;6.472;2024-03-02T03:17:44;8.40;99.90
4811;DHT22;2419;51.276;6.472;2024-03-02T03:20:14;8.40;99.90
4811;DHT22;2419;51.276;6.472;2024-03-02T03:22:42;8.40;99.90
4811;DHT22;2419;51.276;6.472;2024-03-02T03:25:10;8.40;99.90
4811;DHT22;2419;51.276;6.472;2024-03-02T03:27:39;8.30;99.90
4811;DHT22;2419;51.276;6.472;2024-03-02T03:30:09;8.30;99.90
4811;DHT22;2419;51.276;6.472;2024-03-02T03:32:39;8.30;99.90
4811;DHT22;2419;51.276;6.472;2024-03-02T03:35:07;8.30;99.90
4811;DHT22;2419;51.276;6.472;2024-03-02T03:37:36;8.30;99.90
4811;DHT22;2419;51.276;6.472;2024-03-02T03:40:05;8.30;99.90
4811;DHT22;2419;51.276;6.472;2024-03-02T03:42:37;8.30;99.90
4811;DHT22;2419;51.276;6.472;2024-03-02T03:45:07;8.30;99.90
4811;DHT22;2419;51.276;6.472;2024-03-02T03:47:35;8.20;99.90
4811;DHT22;2419;51.276;6.472;2024-03-02T03:50:05;8.20;99.90
4811;DHT22;2419;51.276;6.472;2024-03-02T03:52:34;8.20;99.90
4811;DHT22;2419;51.276;6.472;2024-03-02T03:55:03;8.10;99.90
4811;DHT22;2419;51.276;6.472;2024-03-02T03:57:32;8.10;99.90
4811;DHT22;2419;51.276;6.472;2024-03-02T04:00:00;8.10;99.90
4811;DHT22;2419;51.276;6.472;2024-03-02T04:02:37;8.10;99.90
4811;DHT22;2419;51.276;6.472;2024-03-02T04:05:08;8.10;99.90
4811;DHT22;2419;51.276;6.472;2024-03-02T04:07:38;8.00;99.90
4811;DHT22;2419;51.276;6.472;2024-03-02T04:10:09;8.00;99.90
4811;DHT22;2419;51.276;6.472;2024-03-02T04:12:37;8.00;99.90
4811;DHT22;2419;51.276;6.472;2024-03-02T04:15:06;8.00;99.90
4811;DHT22;2419;51.276;6.472;2024-03-02T04:17:34;8.00;99.90
4811;DHT22;2419;51.276;6.472;2024-03-02T04:20:03;8.00;99.90
4811;DHT22;2419;51.276;6.472;2024-03-02T04:22:34;8.00;99.90
4811;DHT22;2419;51.276;6.472;2024-03-02T04:25:03;7.90;99.90
4811;DHT22;2419;51.276;6.472;2024-03-02T04:27:34;7.80;99.90
4811;DHT22;2419;51.276;6.472;2024-03-02T04:30:03;7.80;99.90
4811;DHT22;2419;51.276;6.472;2024-03-02T04:32:31;7.80;99.90
4811;DHT22;2419;51.276;6.472;2024-03-02T04:34:59;7.80;99.90
4811;DHT22;2419;51.276;6.472;2024-03-02T04:37:27;7.80;99.90
4811;DHT22;2419;51.276;6.472;2024-03-02T04:39:57;7.80;99.90
4811;DHT22;2419;51.276;6.472;2024-03-02T04:42:25;7.80;99.90
4811;DHT22;2419;51.276;6.472;2024-03-02T04:44:53;7.80;99.90
4811;DHT22;2419;51.276;6.472;2024-03-02T04:47:21;7.80;99.90
4811;DHT22;2419;51.276;6.472;2024-03-02T04:49:49;7.60;99.90
4811;DHT22;2419;51.276;6.472;2024-03-02T04:52:18;7.50;99.90
4811;DHT22;2419;51.276;6.472;2024-03-02T04:54:46;7.40;99.90
4811;DHT22;2419;51.276;6.472;2024-03-02T04:57:33;7.40;99.90
4811;DHT22;2419;51.276;6.472;2024-03-02T05:00:01;7.20;99.90
4811;DHT22;2419;51.276;6.472;2024-03-02T05:02:33;7.10;99.90
4811;DHT22;2419;51.276;6.472;2024-03-02T05:05:02;7.00;99.90
4811;DHT22;2419;51.276;6.472;2024-03-02T05:07:30;7.00;99.90
4811;DHT22;2419;51.276;6.472;2024-03-02T05:09:58;7.00;99.90
4811;DHT22;2419;51.276;6.472;2024-03-02T05:12:26;7.00;99.90
4811;DHT22;2419;51.276;6.472;2024-03-02T05:15:24;7.10;99.90
4811;DHT22;2419;51.276;6.472;2024-03-02T05:17:51;7.00;99.90
4811;DHT22;2419;51.276;6.472;2024-03-02T05:20:20;6.80;99.90
4811;DHT22;2419;51.276;6.472;2024-03-02T05:22:48;6.80;99.90
4811;DHT22;2419;51.276;6.472;2024-03-02T05:25:16;6.70;99.90
4811;DHT22;2419;51.276;6.472;2024-03-02T05:27:44;6.70;99.90
4811;DHT22;2419;51.276;6.472;2024-03-02T05:30:13;6.60;99.90
4811;DHT22;2419;51.276;6.472;2024-03-02T05:32:43;6.60;99.90
4811;DHT22;2419;51.276;6.472;2024-03-02T05:35:11;6.70;99.90
4811;DHT22;2419;51.276;6.472;2024-03-02T05:37:39;6.70;99.90
4811;DHT22;2419;51.276;6.472;2024-03-02T05:40:08;6.80;99.90
4811;DHT22;2419;51.276;6.472;2024-03-02T05:42:38;6.70;99.90
4811;DHT22;2419;51.276;6.472;2024-03-02T05:45:08;6.60;99.90
4811;DHT22;2419;51.276;6.472;2024-03-02T05:47:36;6.60;99.90
4811;DHT22;2419;51.276;6.472;2024-03-02T05:50:07;6.50;99.90
4811;DHT22;2419;51.276;6.472;2024-03-02T05:52:35;6.60;99.90
4811;DHT22;2419;51.276;6.472;2024-03-02T05:55:04;6.80;99.90
4811;DHT22;2419;51.276;6.472;2024-03-02T05:57:33;7.00;99.90
4811;DHT22;2419;51.276;6.472;2024-03-02T06:00:16;7.20;99.90
4811;DHT22;2419;51.276;6.472;2024-03-02T06:02:45;7.30;99.90
4811;DHT22;2419;51.276;6.472;2024-03-02T06:05:14;7.50;99.90
4811;DHT22;2419;51.276;6.472;2024-03-02T06:07:43;7.60;99.90
4811;DHT22;2419;51.276;6.472;2024-03-02T06:10:12;7.80;99.90
4811;DHT22;2419;51.276;6.472;2024-03-02T06:12:41;7.80;99.90
4811;DHT22;2419;51.276;6.472;2024-03-02T06:15:09;8.00;99.90
4811;DHT22;2419;51.276;6.472;2024-03-02T06:17:38;8.00;99.90
4811;DHT22;2419;51.276;6.472;2024-03-02T06:20:07;8.10;99.90
4811;DHT22;2419;51.276;6.472;2024-03-02T06:22:37;8.10;99.90
4811;DHT22;2419;51.276;6.472;2024-03-02T06:25:06;8.20;99.90
4811;DHT22;2419;51.276;6.472;2024-03-02T06:27:34;8.30;99.90
4811;DHT22;2419;51.276;6.472;2024-03-02T06:30:03;8.20;99.90
4811;DHT22;2419;51.276;6.472;2024-03-02T06:32:31;8.20;99.90
4811;DHT22;2419;51.276;6.472;2024-03-02T06:34:59;8.20;99.90
4811;DHT22;2419;51.276;6.472;2024-03-02T06:37:28;8.30;99.90
4811;DHT22;2419;51.276;6.472;2024-03-02T06:39:57;8.40;99.90
4811;DHT22;2419;51.276;6.472;2024-03-02T06:42:25;8.50;99.90
4811;DHT22;2419;51.276;6.472;2024-03-02T06:44:53;8.60;99.90
4811;DHT22;2419;51.276;6.472;2024-03-02T06:47:22;8.70;99.90
4811;DHT22;2419;51.276;6.472;2024-03-02T06:49:50;8.90;99.90
4811;DHT22;2419;51.276;6.472;2024-03-02T06:52:19;8.80;99.90
4811;DHT22;2419;51.276;6.472;2024-03-02T06:54:51;8.90;99.90
4811;DHT22;2419;51.276;6.472;2024-03-02T06:57:20;9.20;99.90
4811;DHT22;2419;51.276;6.472;2024-03-02T06:59:49;9.50;99.90
4811;DHT22;2419;51.276;6.472;2024-03-02T07:02:20;9.40;99.90
4811;DHT22;2419;51.276;6.472;2024-03-02T07:04:49;9.20;99.90
4811;DHT22;2419;51.276;6.472;2024-03-02T07:07:18;9.00;99.90
4811;DHT22;2419;51.276;6.472;2024-03-02T07:09:46;8.90;99.90
4811;DHT22;2419;51.276;6.472;2024-03-02T07:12:14;8.90;99.90
4811;DHT22;2419;51.276;6.472;2024-03-02T07:14:43;9.10;99.90
4811;DHT22;2419;51.276;6.472;2024-03-02T07:17:30;9.10;99.90
4811;DHT22;2419;51.276;6.472;2024-03-02T07:19:58;9.10;99.90
4811;DHT22;2419;51.276;6.472;2024-03-02T07:22:26;9.00;99.90
4811;DHT22;2419;51.276;6.472;2024-03-02T07:24:54;9.00;99.90
4811;DHT22;2419;51.276;6.472;2024-03-02T07:27:23;9.00;99.90
4811;DHT22;2419;51.276;6.472;2024-03-02T07:29:52;9.10;99.90
4811;DHT22;2419;51.276;6.472;2024-03-02T07:32:20;9.00;99.90
4811;DHT22;2419;51.276;6.472;2024-03-02T07:34:48;9.00;99.90
4811;DHT22;2419;51.276;6.472;2024-03-02T07:37:17;9.00;99.90
4811;DHT22;2419;51.276;6.472;2024-03-02T07:39:47;9.00;99.90
4811;DHT22;2419;51.276;6.472;2024-03-02T07:42:15;9.00;99.90
4811;DHT22;2419;51.276;6.472;2024-03-02T07:44:44;9.10;99.90
4811;DHT22;2419;51.276;6.472;2024-03-02T07:47:13;9.10;99.90
4811;DHT22;2419;51.276;6.472;2024-03-02T07:49:41;9.20;99.90
4811;DHT22;2419;51.276;6.472;2024-03-02T07:52:09;9.10;99.90
4811;DHT22;2419;51.276;6.472;2024-03-02T07:54:37;9.50;99.90
4811;DHT22;2419;51.276;6.472;2024-03-02T07:57:05;9.50;99.90
4811;DHT22;2419;51.276;6.472;2024-03-02T07:59:33;9.40;99.90
4811;DHT22;2419;51.276;6.472;2024-03-02T08:02:02;9.30;99.90
4811;DHT22;2419;51.276;6.472;2024-03-02T08:04:31;9.20;99.90
4811;DHT22;2419;51.276;6.472;2024-03-02T08:07:01;9.10;99.90
4811;DHT22;2419;51.276;6.472;2024-03-02T08:09:29;9.00;99.90
4811;DHT22;2419;51.276;6.472;2024-03-02T08:11:58;8.90;99.90
4811;DHT22;2419;51.276;6.472;2024-03-02T08:14:26;9.00;99.90
4811;DHT22;2419;51.276;6.472;2024-03-02T08:16:54;9.00;99.90
4811;DHT22;2419;51.276;6.472;2024-03-02T08:19:22;9.00;99.90
4811;DHT22;2419;51.276;6.472;2024-03-02T08:21:52;9.10;99.90
4811;DHT22;2419;51.276;6.472;2024-03-02T08:24:20;9.70;99.90
4811;DHT22;2419;51.276;6.472;2024-03-02T08:26:48;10.30;99.90
4811;DHT22;2419;51.276;6.472;2024-03-02T08:29:16;10.60;99.90
4811;DHT22;2419;51.276;6.472;2024-03-02T08:31:44;11.20;99.90
4811;DHT22;2419;51.276;6.472;2024-03-02T08:34:12;11.70;99.90
4811;DHT22;2419;51.276;6.472;2024-03-02T08:36:41;12.00;99.90
4811;DHT22;2419;51.276;6.472;2024-03-02T08:39:10;12.00;99.90
4811;DHT22;2419;51.276;6.472;2024-03-02T08:41:42;12.50;99.90
4811;DHT22;2419;51.276;6.472;2024-03-02T08:44:12;12.60;99.90
4811;DHT22;2419;51.276;6.472;2024-03-02T08:46:40;12.70;99.90
4811;DHT22;2419;51.276;6.472;2024-03-02T08:49:08;13.10;99.90
4811;DHT22;2419;51.276;6.472;2024-03-02T08:51:36;13.50;99.90
4811;DHT22;2419;51.276;6.472;2024-03-02T08:54:04;14.20;99.90
4811;DHT22;2419;51.276;6.472;2024-03-02T08:56:35;13.70;99.90
4811;DHT22;2419;51.276;6.472;2024-03-02T08:59:03;13.30;99.90
4811;DHT22;2419;51.276;6.472;2024-03-02T09:01:32;13.50;99.90
4811;DHT22;2419;51.276;6.472;2024-03-02T09:04:01;13.10;99.90
4811;DHT22;2419;51.276;6.472;2024-03-02T09:06:29;13.40;99.90
4811;DHT22;2419;51.276;6.472;2024-03-02T09:08:57;12.90;99.90
4811;DHT22;2419;51.276;6.472;2024-03-02T09:11:25;12.40;99.90
4811;DHT22;2419;51.276;6.472;2024-03-02T09:13:55;11.70;99.90
4811;DHT22;2419;51.276;6.472;2024-03-02T09:16:24;12.10;99.90
4811;DHT22;2419;51.276;6.472;2024-03-02T09:18:58;12.30;99.90
4811;DHT22;2419;51.276;6.472;2024-03-02T09:21:27;12.60;99.90
4811;DHT22;2419;51.276;6.472;2024-03-02T09:23:56;12.40;99.90
4811;DHT22;2419;51.276;6.472;2024-03-02T09:26:25;12.40;99.90
4811;DHT22;2419;51.276;6.472;2024-03-02T09:28:54;12.60;99.90
4811;DHT22;2419;51.276;6.472;2024-03-02T09:31:22;12.10;99.90
4811;DHT22;2419;51.276;6.472;2024-03-02T09:33:50;12.20;99.90
4811;DHT22;2419;51.276;6.472;2024-03-02T09:36:19;12.10;99.90
4811;DHT22;2419;51.276;6.472;2024-03-02T09:38:47;12.60;99.90
4811;DHT22;2419;51.276;6.472;2024-03-02T09:41:15;13.10;99.90
4811;DHT22;2419;51.276;6.472;2024-03-02T09:43:43;13.30;99.90
4811;DHT22;2419;51.276;6.472;2024-03-02T09:46:13;13.30;99.90
4811;DHT22;2419;51.276;6.472;2024-03-02T09:48:41;13.30;99.90
4811;DHT22;2419;51.276;6.472;2024-03-02T09:51:10;13.70;99.90
4811;DHT22;2419;51.276;6.472;2024-03-02T09:53:38;13.60;99.90
4811;DHT22;2419;51.276;6.472;2024-03-02T09:56:07;14.00;99.90
4811;DHT22;2419;51.276;6.472;2024-03-02T09:58:35;13.60;99.90
4811;DHT22;2419;51.276;6.472;2024-03-02T10:01:05;14.00;99.90
4811;DHT22;2419;51.276;6.472;2024-03-02T10:03:36;13.90;99.90
4811;DHT22;2419;51.276;6.472;2024-03-02T10:06:20;14.20;99.90
4811;DHT22;2419;51.276;6.472;2024-03-02T10:08:49;13.80;99.90
4811;DHT22;2419;51.276;6.472;2024-03-02T10:11:27;13.80;99.90
4811;DHT22;2419;51.276;6.472;2024-03-02T10:14:06;14.20;99.20
4811;DHT22;2419;51.276;6.472;2024-03-02T10:16:36;14.60;99.20
4811;DHT22;2419;51.276;6.472;2024-03-02T10:19:17;14.30;97.90
4811;DHT22;2419;51.276;6.472;2024-03-02T10:21:46;14.70;98.60
4811;DHT22;2419;51.276;6.472;2024-03-02T10:24:14;14.80;97.80
4811;DHT22;2419;51.276;6.472;2024-03-02T10:26:42;14.60;97.30
4811;DHT22;2419;51.276;6.472;2024-03-02T10:29:10;14.30;98.00
4811;DHT22;2419;51.276;6.472;2024-03-02T10:31:40;14.30;97.70
4811;DHT22;2419;51.276;6.472;2024-03-02T10:34:09;14.70;97.10
4811;DHT22;2419;51.276;6.472;2024-03-02T10:36:41;14.90;96.90
4811;DHT22;2419;51.276;6.472;2024-03-02T10:39:10;14.40;97.90
4811;DHT22;2419;51.276;6.472;2024-03-02T10:41:38;14.70;96.20
4811;DHT22;2419;51.276;6.472;2024-03-02T10:44:08;14.50;95.20
4811;DHT22;2419;51.276;6.472;2024-03-02T10:46:37;14.50;94.90
4811;DHT22;2419;51.276;6.472;2024-03-02T10:49:06;15.10;95.20
4811;DHT22;2419;51.276;6.472;2024-03-02T10:51:35;15.80;95.80
4811;DHT22;2419;51.276;6.472;2024-03-02T10:54:06;15.60;93.30
4811;DHT22;2419;51.276;6.472;2024-03-02T10:56:38;15.70;93.20
4811;DHT22;2419;51.276;6.472;2024-03-02T10:59:16;16.10;93.40
4811;DHT22;2419;51.276;6.472;2024-03-02T11:01:47;16.70;92.40
4811;DHT22;2419;51.276;6.472;2024-03-02T11:04:16;17.70;88.30
4811;DHT22;2419;51.276;6.472;2024-03-02T11:06:48;17.40;79.00
4811;DHT22;2419;51.276;6.472;2024-03-02T11:09:23;17.70;77.10
4811;DHT22;2419;51.276;6.472;2024-03-02T11:12:00;17.80;79.00
4811;DHT22;2419;51.276;6.472;2024-03-02T11:14:30;17.20;75.10
4811;DHT22;2419;51.276;6.472;2024-03-02T11:17:02;16.60;74.40
4811;DHT22;2419;51.276;6.472;2024-03-02T11:19:32;16.80;75.80
4811;DHT22;2419;51.276;6.472;2024-03-02T11:22:02;17.20;75.10
4811;DHT22;2419;51.276;6.472;2024-03-02T11:24:33;17.80;73.90
4811;DHT22;2419;51.276;6.472;2024-03-02T11:27:05;18.20;73.40
4811;DHT22;2419;51.276;6.472;2024-03-02T11:29:43;17.20;75.80
4811;DHT22;2419;51.276;6.472;2024-03-02T11:32:16;16.70;75.00
4811;DHT22;2419;51.276;6.472;2024-03-02T11:34:46;16.30;76.40
4811;DHT22;2419;51.276;6.472;2024-03-02T11:37:17;16.00;77.20
4811;DHT22;2419;51.276;6.472;2024-03-02T11:39:48;16.40;76.70
4811;DHT22;2419;51.276;6.472;2024-03-02T11:42:17;16.60;76.10
4811;DHT22;2419;51.276;6.472;2024-03-02T11:44:47;17.00;76.90
4811;DHT22;2419;51.276;6.472;2024-03-02T11:47:16;17.30;77.70
4811;DHT22;2419;51.276;6.472;2024-03-02T11:49:48;17.80;74.50
4811;DHT22;2419;51.276;6.472;2024-03-02T11:52:17;16.70;77.80
4811;DHT22;2419;51.276;6.472;2024-03-02T11:54:47;16.50;74.70
4811;DHT22;2419;51.276;6.472;2024-03-02T11:57:19;15.60;77.00
4811;DHT22;2419;51.276;6.472;2024-03-02T11:59:49;14.80;78.40
4811;DHT22;2419;51.276;6.472;2024-03-02T12:02:19;14.10;81.30
4811;DHT22;2419;51.276;6.472;2024-03-02T12:04:48;13.80;84.90
4811;DHT22;2419;51.276;6.472;2024-03-02T12:07:19;13.50;88.80
4811;DHT22;2419;51.276;6.472;2024-03-02T12:09:59;13.30;90.20
4811;DHT22;2419;51.276;6.472;2024-03-02T12:12:28;13.30;90.80
4811;DHT22;2419;51.276;6.472;2024-03-02T12:14:56;13.20;90.20
4811;DHT22;2419;51.276;6.472;2024-03-02T12:17:27;13.30;92.40
4811;DHT22;2419;51.276;6.472;2024-03-02T12:19:55;13.20;92.10
4811;DHT22;2419;51.276;6.472;2024-03-02T12:22:23;13.30;93.80
4811;DHT22;2419;51.276;6.472;2024-03-02T12:24:53;13.30;94.90
4811;DHT22;2419;51.276;6.472;2024-03-02T12:27:21;13.40;96.90
4811;DHT22;2419;51.276;6.472;2024-03-02T12:29:49;13.40;96.90
4811;DHT22;2419;51.276;6.472;2024-03-02T12:32:17;13.40;96.00
4811;DHT22;2419;51.276;6.472;2024-03-02T12:34:47;13.40;97.10
4811;DHT22;2419;51.276;6.472;2024-03-02T12:37:15;13.20;96.50
4811;DHT22;2419;51.276;6.472;2024-03-02T12:39:45;13.20;97.50
4811;DHT22;2419;51.276;6.472;2024-03-02T12:42:14;13.20;97.10
4811;DHT22;2419;51.276;6.472;2024-03-02T12:44:42;13.20;96.10
4811;DHT22;2419;51.276;6.472;2024-03-02T12:47:12;13.20;96.80
4811;DHT22;2419;51.276;6.472;2024-03-02T12:49:40;13.40;97.10
4811;DHT22;2419;51.276;6.472;2024-03-02T12:52:08;13.40;96.60
4811;DHT22;2419;51.276;6.472;2024-03-02T12:54:37;13.40;96.60
4811;DHT22;2419;51.276;6.472;2024-03-02T12:57:05;13.60;97.40
4811;DHT22;2419;51.276;6.472;2024-03-02T12:59:34;13.70;96.30
4811;DHT22;2419;51.276;6.472;2024-03-02T13:02:04;13.70;97.10
4811;DHT22;2419;51.276;6.472;2024-03-02T13:04:32;13.60;97.50
4811;DHT22;2419;51.276;6.472;2024-03-02T13:07:00;13.50;98.30
4811;DHT22;2419;51.276;6.472;2024-03-02T13:09:29;13.60;98.20
4811;DHT22;2419;51.276;6.472;2024-03-02T13:11:58;13.90;97.10
4811;DHT22;2419;51.276;6.472;2024-03-02T13:14:26;14.00;97.00
4811;DHT22;2419;51.276;6.472;2024-03-02T13:16:57;14.00;97.20
4811;DHT22;2419;51.276;6.472;2024-03-02T13:19:27;14.00;97.20
4811;DHT22;2419;51.276;6.472;2024-03-02T13:21:57;13.80;97.50
4811;DHT22;2419;51.276;6.472;2024-03-02T13:24:26;13.60;98.70
4811;DHT22;2419;51.276;6.472;2024-03-02T13:26:55;13.50;97.90
4811;DHT22;2419;51.276;6.472;2024-03-02T13:29:25;13.60;98.70
4811;DHT22;2419;51.276;6.472;2024-03-02T13:31:53;13.60;98.40
4811;DHT22;2419;51.276;6.472;2024-03-02T13:34:22;13.70;99.10
4811;DHT22;2419;51.276;6.472;2024-03-02T13:36:50;13.80;97.40
4811;DHT22;2419;51.276;6.472;2024-03-02T13:39:18;13.90;97.40
4811;DHT22;2419;51.276;6.472;2024-03-02T13:41:46;13.90;97.90
4811;DHT22;2419;51.276;6.472;2024-03-02T13:44:19;13.80;98.40
4811;DHT22;2419;51.276;6.472;2024-03-02T13:46:48;13.60;99.50
4811;DHT22;2419;51.276;6.472;2024-03-02T13:49:16;13.80;99.90
4811;DHT22;2419;51.276;6.472;2024-03-02T13:51:45;14.00;98.80
4811;DHT22;2419;51.276;6.472;2024-03-02T13:54:13;13.90;98.30
4811;DHT22;2419;51.276;6.472;2024-03-02T13:56:42;13.90;99.10
4811;DHT22;2419;51.276;6.472;2024-03-02T13:59:10;13.80;99.30
4811;DHT22;2419;51.276;6.472;2024-03-02T14:01:38;13.90;99.60
4811;DHT22;2419;51.276;6.472;2024-03-02T14:04:06;13.70;99.10
4811;DHT22;2419;51.276;6.472;2024-03-02T14:06:34;13.80;99.90
4811;DHT22;2419;51.276;6.472;2024-03-02T14:09:04;13.80;99.50
4811;DHT22;2419;51.276;6.472;2024-03-02T14:11:32;13.60;99.00
4811;DHT22;2419;51.276;6.472;2024-03-02T14:14:00;13.50;99.40
4811;DHT22;2419;51.276;6.472;2024-03-02T14:16:28;13.50;99.50
4811;DHT22;2419;51.276;6.472;2024-03-02T14:18:56;13.40;99.90
4811;DHT22;2419;51.276;6.472;2024-03-02T14:21:26;13.40;99.80
4811;DHT22;2419;51.276;6.472;2024-03-02T14:23:54;13.30;99.90
4811;DHT22;2419;51.276;6.472;2024-03-02T14:26:23;13.40;99.90
4811;DHT22;2419;51.276;6.472;2024-03-02T14:28:51;13.40;99.90
4811;DHT22;2419;51.276;6.472;2024-03-02T14:31:22;13.40;99.90
4811;DHT22;2419;51.276;6.472;2024-03-02T14:33:50;13.50;99.90
4811;DHT22;2419;51.276;6.472;2024-03-02T14:36:20;13.40;99.90
4811;DHT22;2419;51.276;6.472;2024-03-02T14:38:48;13.40;99.90
4811;DHT22;2419;51.276;6.472;2024-03-02T14:41:16;13.50;99.90
4811;DHT22;2419;51.276;6.472;2024-03-02T14:43:45;13.70;99.80
4811;DHT22;2419;51.276;6.472;2024-03-02T14:46:13;13.70;99.50
4811;DHT22;2419;51.276;6.472;2024-03-02T14:48:43;13.70;99.50
4811;DHT22;2419;51.276;6.472;2024-03-02T14:51:12;13.70;99.60
4811;DHT22;2419;51.276;6.472;2024-03-02T14:53:41;13.60;99.80
4811;DHT22;2419;51.276;6.472;2024-03-02T14:56:09;13.60;99.90
4811;DHT22;2419;51.276;6.472;2024-03-02T14:58:37;13.70;99.90
4811;DHT22;2419;51.276;6.472;2024-03-02T15:01:06;13.70;99.90
4811;DHT22;2419;51.276;6.472;2024-03-02T15:03:35;13.50;99.90
4811;DHT22;2419;51.276;6.472;2024-03-02T15:06:04;13.50;99.90
4811;DHT22;2419;51.276;6.472;2024-03-02T15:08:34;13.50;99.90
4811;DHT22;2419;51.276;6.472;2024-03-02T15:11:02;13.60;99.60
4811;DHT22;2419;51.276;6.472;2024-03-02T15:13:31;13.60;99.90
4811;DHT22;2419;51.276;6.472;2024-03-02T15:15:59;13.70;99.90
4811;DHT22;2419;51.276;6.472;2024-03-02T15:18:28;13.70;99.90
4811;DHT22;2419;51.276;6.472;2024-03-02T15:20:57;13.70;99.90
4811;DHT22;2419;51.276;6.472;2024-03-02T15:23:25;13.60;99.90
4811;DHT22;2419;51.276;6.472;2024-03-02T15:25:53;13.50;99.90
4811;DHT22;2419;51.276;6.472;2024-03-02T15:28:21;13.50;99.90
4811;DHT22;2419;51.276;6.472;2024-03-02T15:30:49;13.40;99.90
4811;DHT22;2419;51.276;6.472;2024-03-02T15:33:21;13.40;99.90
4811;DHT22;2419;51.276;6.472;2024-03-02T15:35:53;13.50;99.90
4811;DHT22;2419;51.276;6.472;2024-03-02T15:38:22;13.50;99.90
4811;DHT22;2419;51.276;6.472;2024-03-02T15:41:00;13.50;99.90
4811;DHT22;2419;51.276;6.472;2024-03-02T15:43:29;13.50;99.90
4811;DHT22;2419;51.276;6.472;2024-03-02T15:45:57;13.60;99.90
4811;DHT22;2419;51.276;6.472;2024-03-02T15:48:26;13.60;99.90
4811;DHT22;2419;51.276;6.472;2024-03-02T15:50:56;13.60;99.80
4811;DHT22;2419;51.276;6.472;2024-03-02T15:53:26;13.50;99.90
4811;DHT22;2419;51.276;6.472;2024-03-02T15:55:54;13.50;99.90
4811;DHT22;2419;51.276;6.472;2024-03-02T15:58:22;13.50;99.90
4811;DHT22;2419;51.276;6.472;2024-03-02T16:00:50;13.50;99.90
4811;DHT22;2419;51.276;6.472;2024-03-02T16:03:19;13.50;99.90
4811;DHT22;2419;51.276;6.472;2024-03-02T16:05:47;13.50;99.90
4811;DHT22;2419;51.276;6.472;2024-03-02T16:08:16;13.40;99.90
4811;DHT22;2419;51.276;6.472;2024-03-02T16:10:44;13.40;99.90
4811;DHT22;2419;51.276;6.472;2024-03-02T16:13:12;13.40;99.90
4811;DHT22;2419;51.276;6.472;2024-03-02T16:15:41;13.40;99.90
4811;DHT22;2419;51.276;6.472;2024-03-02T16:18:09;13.30;99.90
4811;DHT22;2419;51.276;6.472;2024-03-02T16:20:37;13.30;99.90
4811;DHT22;2419;51.276;6.472;2024-03-02T16:23:05;13.40;99.80